Chadstone Weather > Observations for 20/03/21

Select Day:



Observations
Time Temp Hum DP Wind Gust Dir Rain >9am Press
C % C kph kph mm hPa
00:00 19.5 79 15.8 6.7 17.3 ESE 0.0 1014.9
00:10 19.4 79 15.7 7.1 15.8 SE 0.0 1014.9
00:20 19.3 80 15.8 5.7 13.3 SE 0.0 1014.6
00:30 19.3 80 15.8 4.6 12.2 SE 0.0 1014.8
00:40 19.1 80 15.6 6.1 13.3 SE 0.0 1014.4
00:50 19.1 81 15.8 6.3 14.8 SSE 0.0 1015.0
01:00 19.1 81 15.8 4.6 11.2 SE 0.0 1014.2
01:10 19.1 81 15.8 4.9 11.2 SSE 0.0 1014.6
01:20 19.0 82 15.9 5.9 14.8 SE 0.0 1014.1
01:30 19.0 82 15.9 5.2 18.4 SE 0.0 1014.5
01:40 19.0 82 15.9 5.3 11.2 ESE 0.0 1014.5
01:50 18.9 83 16.0 6.4 15.8 ESE 0.0 1014.4
02:00 18.9 83 16.0 5.3 12.2 SE 0.0 1014.7
02:10 18.7 84 16.0 5.1 11.2 SE 0.0 1013.9
02:20 18.7 84 16.0 5.5 14.8 SE 0.0 1014.6
02:30 18.6 84 15.9 4.2 13.3 SE 0.0 1013.9
02:40 18.5 84 15.8 5.2 12.2 SE 0.0 1014.2
02:50 18.5 84 15.8 4.9 13.3 ESE 0.0 1014.3
03:00 18.4 84 15.7 4.5 13.3 SSE 0.0 1013.7
03:10 18.4 84 15.7 3.2 9.7 SE 0.0 1014.2
03:20 18.2 84 15.5 2.9 11.2 ESE 0.0 1013.9
03:30 18.2 85 15.6 2.5 7.2 ESE 0.0 1013.9
03:40 18.2 85 15.6 1.7 6.1 SE 0.0 1014.4
03:50 18.0 85 15.5 0.7 6.1 SSE 0.0 1013.8
04:00 17.9 84 15.2 0.9 5.0 SE 0.0 1013.9
04:10 17.7 84 15.0 0.1 3.6 SE 0.0 1014.1
04:20 17.6 84 14.9 0.0 0.0 N 0.0 1013.6
04:30 17.4 84 14.7 0.0 2.5 SE 0.0 1013.9
04:40 17.3 84 14.6 0.0 1.1 SE 0.0 1014.0
04:50 17.1 84 14.4 0.0 0.0 N 0.0 1013.7
05:00 17.0 85 14.5 0.0 0.0 N 0.0 1013.7
05:10 16.9 86 14.6 0.0 0.0 N 0.0 1014.3
05:20 16.8 86 14.5 0.0 0.0 N 0.0 1013.8
05:30 16.6 86 14.3 0.0 0.0 N 0.0 1013.9
05:40 16.5 87 14.3 0.0 0.0 N 0.0 1014.2
05:50 16.4 87 14.2 0.0 0.0 N 0.0 1013.8
06:00 16.2 87 14.0 0.0 0.0 N 0.0 1013.8
06:10 16.1 87 13.9 0.0 0.0 N 0.0 1014.0
06:20 15.9 88 13.9 0.0 0.0 N 0.0 1014.2
06:30 15.8 89 14.0 0.0 0.0 N 0.0 1014.1
06:40 15.7 89 13.9 0.0 0.0 N 0.0 1014.3
06:50 15.6 89 13.8 0.0 0.0 N 0.0 1013.9
07:00 15.6 89 13.8 0.0 0.0 N 0.0 1014.2
07:10 15.5 90 13.9 0.0 0.0 N 0.0 1014.4
07:20 15.4 90 13.8 0.0 0.0 N 0.0 1014.4
07:30 15.3 90 13.7 0.0 0.0 N 0.0 1014.8
07:40 15.3 90 13.7 0.0 0.0 N 0.0 1014.5
07:50 15.3 90 13.7 0.0 0.0 N 0.0 1015.0
08:00 15.4 91 13.9 0.0 0.0 N 0.0 1014.5
08:10 15.5 91 14.0 0.0 0.0 N 0.0 1014.4
08:20 15.9 92 14.6 0.0 1.1 NNW 0.0 1014.5
08:30 16.2 91 14.7 0.0 0.0 N 0.0 1014.5
08:40 16.4 91 14.9 0.0 1.1 NW 0.0 1014.6
08:50 16.7 91 15.2 0.0 0.0 N 0.0 1014.6
09:00 16.9 90 15.3 0.0 0.0 N 0.0 1014.6
09:10 17.2 89 15.4 0.0 2.5 SE 0.0 1014.8
09:20 17.5 88 15.5 0.0 1.1 NE 0.0 1014.7
09:30 17.9 88 15.9 0.1 5.0 S 0.0 1014.8
09:40 18.5 87 16.3 0.9 7.2 NE 0.0 1014.8
09:50 19.0 85 16.4 0.9 6.1 SE 0.0 1014.9
10:00 20.0 80 16.5 2.6 11.2 SSE 0.0 1014.8
10:10 20.4 75 15.8 6.2 13.3 SSE 0.0 1015.0
10:20 20.9 72 15.7 7.4 18.4 S 0.0 1015.0
10:30 21.1 69 15.2 6.8 17.3 SSE 0.0 1014.9
10:40 21.6 67 15.2 8.7 19.4 SSE 0.0 1014.9
10:50 21.9 67 15.5 7.4 17.3 SE 0.0 1014.9
11:00 22.4 65 15.5 4.7 14.8 SE 0.0 1015.0
11:10 22.6 64 15.5 8.3 17.3 SE 0.0 1015.0
11:20 22.8 63 15.4 9.6 22.0 SSE 0.0 1015.0
11:30 23.2 63 15.8 7.2 22.0 SE 0.0 1014.5
11:40 23.6 61 15.7 7.4 18.4 SE 0.0 1014.5
11:50 23.9 61 15.9 6.1 17.3 S 0.0 1014.5
12:00 24.2 59 15.7 4.9 19.4 SE 0.0 1014.2
12:10 24.3 58 15.5 6.5 14.8 ESE 0.0 1013.9
12:20 24.1 58 15.3 9.1 20.9 SSE 0.0 1014.2
12:30 24.0 59 15.5 7.4 14.8 SE 0.0 1014.2
12:40 24.3 58 15.5 5.2 18.4 SE 0.0 1014.0
12:50 24.2 57 15.2 8.0 22.0 SE 0.0 1014.0
13:00 24.5 58 15.7 6.8 18.4 SE 0.0 1014.0
13:10 24.4 57 15.3 8.2 19.4 ESE 0.0 1013.9
13:20 24.5 57 15.4 6.1 15.8 SSE 0.0 1013.5
13:30 24.7 56 15.4 8.8 24.5 SSE 0.0 1013.6
13:40 24.7 56 15.4 9.9 20.9 SE 0.0 1013.3
13:50 24.8 55 15.2 10.2 23.4 SE 0.0 1013.2
14:00 25.3 53 15.1 7.5 23.4 SSE 0.0 1013.0
14:10 25.0 53 14.8 10.0 24.5 SE 0.0 1013.1
14:20 24.6 55 15.0 9.2 29.5 ESE 0.0 1012.9
14:30 24.4 55 14.8 11.1 25.6 ESE 0.0 1012.7
14:40 24.4 55 14.8 7.1 19.4 E 0.0 1012.8
14:50 24.3 56 15.0 7.6 22.0 E 0.0 1012.6
15:00 23.8 58 15.1 11.0 24.5 ESE 0.0 1012.6
15:10 23.7 58 15.0 8.8 27.0 ESE 0.0 1012.5
15:20 23.5 59 15.0 8.4 22.0 SE 0.0 1012.3
15:30 23.5 59 15.0 7.8 22.0 E 0.0 1012.2
15:40 23.5 58 14.8 8.6 23.4 E 0.0 1012.1
15:50 23.5 58 14.8 9.8 23.4 E 0.0 1012.0
16:00 23.3 58 14.6 13.9 31.7 SE 0.0 1012.1
16:10 23.2 58 14.5 9.5 24.5 ESE 0.0 1012.1
16:20 23.2 59 14.8 8.1 20.9 SE 0.0 1012.0
16:30 23.2 59 14.8 6.5 22.0 SSE 0.0 1012.0
16:40 23.1 59 14.7 10.3 24.5 ESE 0.0 1011.9
16:50 23.0 59 14.6 11.4 27.0 SE 0.0 1011.9
17:00 23.0 59 14.6 10.8 27.0 SE 0.0 1011.8
17:10 23.0 59 14.6 13.0 28.1 SE 0.0 1011.7
17:20 23.0 59 14.6 12.4 28.1 SE 0.0 1011.8
17:30 22.9 60 14.7 8.3 28.1 ESE 0.0 1011.7
17:40 22.9 60 14.7 8.4 22.0 SE 0.0 1011.9
17:50 22.6 61 14.7 13.8 27.0 ESE 0.0 1011.8
18:00 22.5 61 14.6 9.5 23.4 E 0.0 1011.9
18:10 22.3 61 14.4 12.2 29.5 SSE 0.0 1011.9
18:20 22.1 62 14.5 10.5 28.1 SE 0.0 1011.9
18:30 21.9 63 14.6 8.5 22.0 ESE 0.0 1011.9
18:40 21.7 64 14.6 9.2 20.9 ESE 0.0 1011.9
18:50 21.6 64 14.5 9.0 25.6 SE 0.0 1012.1
19:00 21.5 65 14.7 10.0 19.4 SSW 0.0 1012.0
19:10 21.2 66 14.6 10.7 28.1 ESE 0.0 1011.8
19:20 21.2 67 14.8 10.3 28.1 SE 0.0 1011.8
19:30 21.0 67 14.7 9.4 20.9 SE 0.0 1011.9
19:40 21.0 68 14.9 9.0 18.4 ESE 0.0 1011.9
19:50 20.9 69 15.0 7.3 22.0 E 0.0 1011.9
20:00 20.8 70 15.1 8.0 19.4 SE 0.0 1011.8
20:10 20.7 70 15.0 9.7 19.4 SE 0.0 1011.8
20:20 20.6 71 15.2 9.4 19.4 E 0.0 1012.0
20:30 20.5 72 15.3 8.8 19.4 SSE 0.0 1011.9
20:40 20.4 73 15.4 8.3 19.4 ESE 0.0 1012.0
20:50 20.4 73 15.4 9.4 17.3 ESE 0.0 1012.1
21:00 20.3 74 15.5 9.7 22.0 ESE 0.0 1012.1
21:10 20.3 74 15.5 7.4 20.9 SE 0.0 1012.3
21:20 20.3 74 15.5 6.9 18.4 SE 0.0 1012.3
21:30 20.2 75 15.6 6.1 13.3 SE 0.0 1012.2
21:40 20.1 75 15.5 7.5 17.3 SSE 0.0 1012.3
21:50 20.1 75 15.5 9.7 17.3 ESE 0.0 1012.2
22:00 20.0 75 15.4 6.9 18.4 SE 0.0 1012.3
22:10 20.0 76 15.7 4.7 12.2 SE 0.0 1012.5
22:20 20.0 76 15.7 7.3 17.3 SE 0.0 1012.2
22:30 20.0 76 15.7 7.0 15.8 SE 0.0 1012.4
22:40 19.9 77 15.8 7.7 13.3 E 0.0 1012.3
22:50 19.9 77 15.8 4.0 13.3 SE 0.0 1012.3
23:00 19.9 77 15.8 5.3 13.3 ESE 0.0 1012.5
23:10 19.9 77 15.8 5.1 13.3 SE 0.0 1012.4
23:20 19.9 77 15.8 3.4 12.2 ESE 0.0 1012.4
23:30 19.8 77 15.7 5.3 11.2 SSE 0.0 1012.3
23:40 19.8 77 15.7 3.1 8.6 SE 0.0 1012.5
23:50 19.7 77 15.6 3.1 9.7 SE 0.0 1012.1